Le Roy, Minnesota
Current Conditions -  °F | °C
As of 3:36 PM on Friday 24 Oct 2014 (Local Time) from KFKA Reporting Station
Overcast Overcast  
Wind Chill: 56°   Ceiling: 600
Heat Index: 56°   Visibility: 7mi
Dew Point: 54°   Wind: 8mph
Humidity: 91%   Direction: 210°SSW
Pressure: 29.89"   Gusts: NA
Location:  43.51°N, 92.5°W
Report Text: KFKA 242036Z AUTO 21007KT 7SM OVC006 14/12 A2989 RMK AO2 T01360121
Loading
Personal Weather Stations






























Interactive Weather Map
Tropical Storm Tracking
New forecast layout! Learn more

10-Day Weather Forecast

Advertisements
Track Severe Weather on mobile